createdAt,value
2018-09-03T00:00:42.587Z,13.05
2018-09-03T00:03:11.827Z,12.87
2018-09-03T00:05:41.081Z,12.78
2018-09-03T00:08:10.318Z,12.74
2018-09-03T00:10:39.547Z,12.75
2018-09-03T00:13:08.807Z,12.70
2018-09-03T00:15:38.063Z,12.73
2018-09-03T00:18:07.314Z,12.72
2018-09-03T00:20:36.534Z,12.74
2018-09-03T00:23:05.800Z,12.74
2018-09-03T00:25:35.050Z,12.75
2018-09-03T00:28:04.323Z,12.80
2018-09-03T00:30:33.531Z,13.11
2018-09-03T00:33:07.902Z,13.31
2018-09-03T00:35:42.354Z,13.14
2018-09-03T00:38:16.843Z,13.01
2018-09-03T00:40:51.196Z,13.13
2018-09-03T00:43:25.571Z,13.35
2018-09-03T00:47:06.181Z,13.37
2018-09-03T00:49:35.414Z,13.21
2018-09-03T00:52:04.658Z,13.08
2018-09-03T00:54:34.370Z,12.77
2018-09-03T00:57:03.626Z,12.68
2018-09-03T00:59:32.866Z,12.48
2018-09-03T01:02:02.173Z,12.34
2018-09-03T01:04:31.419Z,12.21
2018-09-03T01:07:00.646Z,12.10
2018-09-03T01:09:29.900Z,12.03
2018-09-03T01:11:59.145Z,11.96
2018-09-03T01:14:28.370Z,11.87
2018-09-03T01:16:57.626Z,11.83
2018-09-03T01:19:26.863Z,11.75
2018-09-03T01:21:56.105Z,11.75
2018-09-03T01:24:25.319Z,11.77
2018-09-03T01:26:54.571Z,12.06
2018-09-03T01:29:23.835Z,12.02
2018-09-03T01:31:55.874Z,11.85
2018-09-03T01:34:26.421Z,11.78
2018-09-03T01:36:55.776Z,11.87
2018-09-03T01:39:25.791Z,11.83
2018-09-03T01:41:55.018Z,11.75
2018-09-03T01:44:24.261Z,11.70
2018-09-03T01:46:53.481Z,11.69
2018-09-03T01:49:22.716Z,11.58
2018-09-03T01:51:51.960Z,11.49
2018-09-03T01:54:21.219Z,11.45
2018-09-03T01:56:50.446Z,11.63
2018-09-03T01:59:19.710Z,11.44
2018-09-03T02:01:48.925Z,11.35
2018-09-03T02:04:18.163Z,11.11
2018-09-03T02:06:47.403Z,10.95
2018-09-03T02:09:16.655Z,10.88
2018-09-03T02:11:45.908Z,10.86
2018-09-03T02:14:15.154Z,10.88
2018-09-03T02:16:44.403Z,11.14
2018-09-03T02:19:13.695Z,11.11
2018-09-03T02:21:42.916Z,11.13
2018-09-03T02:24:12.145Z,10.86
2018-09-03T02:26:41.399Z,10.68
2018-09-03T02:29:10.650Z,10.67
2018-09-03T02:31:39.898Z,10.61
2018-09-03T02:34:09.134Z,10.61
2018-09-03T02:36:38.366Z,10.60
2018-09-03T02:39:08.585Z,10.52
2018-09-03T02:41:37.835Z,10.40
2018-09-03T02:44:07.352Z,10.40
2018-09-03T02:46:36.591Z,10.44
2018-09-03T02:49:06.282Z,10.49
2018-09-03T02:51:35.558Z,10.55
2018-09-03T02:54:04.800Z,10.64
2018-09-03T02:56:34.043Z,10.69
2018-09-03T02:59:03.308Z,10.69
2018-09-03T03:01:32.547Z,10.65
2018-09-03T03:04:01.810Z,10.61
2018-09-03T03:06:31.010Z,10.67
2018-09-03T03:09:00.240Z,10.79
2018-09-03T03:11:29.503Z,10.86
2018-09-03T03:13:58.739Z,10.88
2018-09-03T03:16:28.866Z,10.85
2018-09-03T03:18:58.111Z,10.89
2018-09-03T03:21:27.351Z,10.94
2018-09-03T03:23:56.653Z,10.97
2018-09-03T03:26:25.891Z,11.04
2018-09-03T03:28:55.131Z,11.07
2018-09-03T03:31:24.392Z,11.08
2018-09-03T03:33:53.896Z,11.09
2018-09-03T03:36:23.334Z,11.12
2018-09-03T03:38:52.569Z,11.13
2018-09-03T03:41:21.818Z,11.15
2018-09-03T03:43:51.065Z,11.22
2018-09-03T03:46:20.307Z,11.57
2018-09-03T03:48:49.712Z,11.46
2018-09-03T03:51:18.783Z,11.07
2018-09-03T03:53:48.035Z,10.92
2018-09-03T03:56:17.545Z,10.94
2018-09-03T03:58:46.812Z,11.18
2018-09-03T04:01:16.056Z,11.08
2018-09-03T04:03:45.305Z,11.08
2018-09-03T04:06:14.534Z,11.12
2018-09-03T04:08:43.795Z,11.18
2018-09-03T04:11:13.059Z,11.26
2018-09-03T04:13:42.293Z,11.24
2018-09-03T04:16:11.555Z,11.22
2018-09-03T04:18:40.797Z,11.06
2018-09-03T04:21:10.075Z,10.94
2018-09-03T04:23:39.322Z,10.74
2018-09-03T04:26:08.579Z,10.78
2018-09-03T04:28:37.879Z,10.74
2018-09-03T04:31:07.066Z,10.72
2018-09-03T04:33:36.319Z,10.77
2018-09-03T04:36:05.620Z,10.83
2018-09-03T04:38:34.888Z,10.87
2018-09-03T04:41:04.103Z,10.93
2018-09-03T04:43:33.369Z,10.97
2018-09-03T04:46:02.658Z,10.99
2018-09-03T04:48:31.891Z,11.03
2018-09-03T04:51:01.241Z,11.05
2018-09-03T04:53:30.507Z,10.99
2018-09-03T04:55:59.743Z,10.99
2018-09-03T04:58:28.986Z,11.03
2018-09-03T05:00:58.219Z,11.09
2018-09-03T05:03:27.456Z,11.13
2018-09-03T05:05:56.744Z,11.34
2018-09-03T05:08:25.942Z,11.54
2018-09-03T05:10:55.199Z,11.35
2018-09-03T05:13:24.443Z,11.27
2018-09-03T05:15:53.695Z,11.18
2018-09-03T05:18:22.947Z,11.21
2018-09-03T05:20:52.186Z,11.17
2018-09-03T05:23:21.465Z,11.24
2018-09-03T05:25:50.720Z,11.36
2018-09-03T05:33:17.584Z,11.60
2018-09-03T05:35:46.825Z,11.63
2018-09-03T05:38:16.130Z,11.92
2018-09-03T05:40:45.382Z,11.93
2018-09-03T05:43:14.746Z,12.06
2018-09-03T05:45:44.962Z,12.17
2018-09-03T05:48:14.318Z,12.29
2018-09-03T05:50:43.890Z,12.00
2018-09-03T05:53:13.170Z,11.92
2018-09-03T05:55:42.430Z,11.97
2018-09-03T05:58:11.690Z,12.05
2018-09-03T06:00:40.927Z,12.17
2018-09-03T06:03:10.182Z,12.15
2018-09-03T06:05:39.423Z,12.12
2018-09-03T06:08:08.709Z,12.16
2018-09-03T06:10:37.979Z,12.42
2018-09-03T06:13:07.205Z,12.78
2018-09-03T06:15:36.479Z,12.83
2018-09-03T06:18:05.926Z,13.13
2018-09-03T06:20:35.195Z,13.59
2018-09-03T06:23:04.430Z,14.08
2018-09-03T06:25:33.662Z,14.14
2018-09-03T06:28:02.927Z,14.14
2018-09-03T06:30:32.194Z,13.93
2018-09-03T06:33:01.435Z,13.84
2018-09-03T06:35:30.713Z,13.38
2018-09-03T06:37:59.971Z,13.54
2018-09-03T06:40:29.221Z,13.52
2018-09-03T06:42:58.458Z,13.45
2018-09-03T06:45:27.728Z,13.39
2018-09-03T06:47:56.956Z,13.43
2018-09-03T06:50:27.447Z,13.56
2018-09-03T06:52:56.687Z,13.83
2018-09-03T06:55:25.947Z,13.95
2018-09-03T06:57:55.201Z,14.00
2018-09-03T07:00:24.452Z,13.95
2018-09-03T07:02:53.711Z,13.81
2018-09-03T07:05:22.947Z,13.85
2018-09-03T07:07:52.224Z,13.93
2018-09-03T07:10:21.460Z,13.92
2018-09-03T07:12:50.850Z,13.96
2018-09-03T07:15:20.078Z,14.34
2018-09-03T07:17:49.319Z,14.44
2018-09-03T07:20:18.562Z,14.55
2018-09-03T07:22:48.076Z,14.59
2018-09-03T07:25:17.307Z,14.59
2018-09-03T07:27:46.541Z,14.91
2018-09-03T07:30:15.775Z,14.91
2018-09-03T07:32:45.043Z,15.29
2018-09-03T07:35:14.306Z,15.83
2018-09-03T07:37:43.515Z,15.38
2018-09-03T07:40:12.745Z,15.31
2018-09-03T07:42:41.991Z,15.66
2018-09-03T07:45:11.231Z,15.49
2018-09-03T07:47:40.474Z,15.35
2018-09-03T07:50:09.711Z,15.42
2018-09-03T07:52:39.003Z,15.84
2018-09-03T07:55:08.320Z,16.04
2018-09-03T07:57:37.527Z,16.25
2018-09-03T08:00:07.151Z,16.32
2018-09-03T08:02:36.399Z,16.28
2018-09-03T08:05:05.710Z,16.54
2018-09-03T08:07:34.956Z,16.40
2018-09-03T08:10:04.208Z,16.92
2018-09-03T08:12:33.459Z,17.34
2018-09-03T08:15:02.704Z,17.01
2018-09-03T08:17:31.942Z,17.41
2018-09-03T08:20:01.252Z,17.41
2018-09-03T08:22:30.438Z,17.30
2018-09-03T08:24:59.726Z,17.21
2018-09-03T08:27:28.994Z,17.49
2018-09-03T08:29:58.238Z,18.13
2018-09-03T08:32:27.511Z,17.85
2018-09-03T08:34:57.175Z,17.67
2018-09-03T08:37:26.431Z,17.81
2018-09-03T08:39:55.740Z,17.82
2018-09-03T08:42:24.964Z,17.23
2018-09-03T08:44:54.234Z,16.78
2018-09-03T08:47:23.440Z,16.70
2018-09-03T08:49:52.696Z,17.71
2018-09-03T08:52:21.920Z,17.74
2018-09-03T08:54:51.162Z,17.73
2018-09-03T08:57:20.403Z,17.54
2018-09-03T08:59:49.652Z,17.37
2018-09-03T09:02:19.728Z,16.97
2018-09-03T09:04:48.948Z,16.79
2018-09-03T09:07:18.179Z,17.13
2018-09-03T09:09:47.424Z,17.85
2018-09-03T09:12:16.675Z,17.66
2018-09-03T09:14:45.923Z,17.86
2018-09-03T09:17:15.194Z,17.74
2018-09-03T09:19:44.447Z,18.44
2018-09-03T09:22:13.680Z,18.86
2018-09-03T09:24:42.903Z,18.31
2018-09-03T09:27:12.133Z,18.35
2018-09-03T09:29:41.375Z,18.72
2018-09-03T09:32:10.608Z,19.05
2018-09-03T09:34:39.863Z,19.46
2018-09-03T09:37:09.104Z,19.29
2018-09-03T09:39:38.327Z,18.89
2018-09-03T09:42:07.579Z,19.38
2018-09-03T09:44:36.798Z,18.66
2018-09-03T09:47:06.024Z,18.22
2018-09-03T09:49:35.262Z,19.57
2018-09-03T09:52:04.495Z,19.29
2018-09-03T09:54:33.731Z,18.98
2018-09-03T09:57:02.966Z,18.93
2018-09-03T09:59:32.203Z,19.36
2018-09-03T10:02:01.440Z,20.29
2018-09-03T10:04:30.680Z,20.21
2018-09-03T10:06:59.899Z,20.79
2018-09-03T10:09:29.415Z,20.57
2018-09-03T10:11:58.631Z,21.08
2018-09-03T10:14:29.108Z,20.76
2018-09-03T10:16:58.343Z,20.91
2018-09-03T10:19:27.595Z,20.54
2018-09-03T10:21:56.832Z,20.46
2018-09-03T10:24:26.063Z,20.35
2018-09-03T10:26:55.308Z,20.12
2018-09-03T10:29:24.559Z,20.34
2018-09-03T10:31:53.947Z,20.73
2018-09-03T10:34:23.141Z,21.76
2018-09-03T10:36:52.371Z,22.07
2018-09-03T10:39:21.604Z,21.72
2018-09-03T10:41:50.915Z,20.35
2018-09-03T10:44:20.165Z,20.36
2018-09-03T10:46:50.208Z,20.71
2018-09-03T10:49:19.422Z,20.36
2018-09-03T10:51:48.677Z,20.86
2018-09-03T10:54:17.879Z,20.82
2018-09-03T10:56:47.102Z,19.73
2018-09-03T10:59:16.326Z,19.87
2018-09-03T11:01:45.559Z,20.13
2018-09-03T11:04:14.760Z,20.14
2018-09-03T11:06:43.974Z,19.79
2018-09-03T11:09:13.181Z,19.42
2018-09-03T11:11:42.408Z,19.63
2018-09-03T11:14:11.633Z,20.03
2018-09-03T11:16:40.936Z,20.51
2018-09-03T11:19:10.154Z,20.92
2018-09-03T11:21:39.466Z,21.22
2018-09-03T11:24:08.553Z,21.79
2018-09-03T11:26:37.758Z,21.07
2018-09-03T11:29:06.959Z,21.16
2018-09-03T11:31:36.165Z,20.71
2018-09-03T11:34:05.375Z,20.51
2018-09-03T11:36:34.600Z,19.42
2018-09-03T11:39:05.456Z,18.96
2018-09-03T11:41:34.681Z,18.73
2018-09-03T11:44:04.522Z,18.80
2018-09-03T11:46:33.947Z,19.16
2018-09-03T11:49:03.159Z,19.14
2018-09-03T11:51:32.387Z,18.55
2018-09-03T11:54:01.631Z,18.69
2018-09-03T11:56:30.852Z,18.43
2018-09-03T11:59:00.072Z,18.26
2018-09-03T12:01:29.283Z,18.33
2018-09-03T12:03:58.489Z,18.16
2018-09-03T12:06:27.756Z,18.41
2018-09-03T12:08:56.918Z,18.10
2018-09-03T12:11:26.120Z,18.11
2018-09-03T12:13:55.333Z,18.33
2018-09-03T12:16:27.040Z,18.35
2018-09-03T12:18:59.288Z,18.60
2018-09-03T12:21:28.522Z,18.77
2018-09-03T12:23:57.732Z,18.88
2018-09-03T12:26:26.968Z,19.24
2018-09-03T12:28:56.186Z,19.62
2018-09-03T12:31:25.464Z,19.32
2018-09-03T12:33:54.627Z,19.21
2018-09-03T12:36:23.868Z,19.49
2018-09-03T12:38:53.055Z,19.26
2018-09-03T12:41:22.620Z,19.50
2018-09-03T12:43:51.819Z,19.35
2018-09-03T12:46:21.208Z,19.83
2018-09-03T12:48:50.493Z,20.15
2018-09-03T12:54:19.235Z,20.23
2018-09-03T12:56:48.444Z,19.82
2018-09-03T12:59:17.670Z,19.42
2018-09-03T13:01:46.896Z,19.15
2018-09-03T13:04:16.108Z,19.35
2018-09-03T13:06:45.339Z,19.33
2018-09-03T13:09:14.577Z,19.44
2018-09-03T13:11:43.794Z,19.61
2018-09-03T13:14:13.057Z,19.62
2018-09-03T13:16:42.271Z,19.46
2018-09-03T13:19:11.515Z,19.53
2018-09-03T13:21:40.753Z,19.32
2018-09-03T13:24:10.241Z,18.89
2018-09-03T13:26:39.459Z,18.95
2018-09-03T13:29:08.686Z,18.90
2018-09-03T13:31:37.905Z,18.80
2018-09-03T13:34:07.130Z,18.81
2018-09-03T13:36:36.386Z,19.01
2018-09-03T13:39:08.347Z,18.92
2018-09-03T13:41:37.580Z,18.76
2018-09-03T13:44:07.012Z,19.02
2018-09-03T13:46:36.266Z,18.70
2018-09-03T13:49:05.579Z,18.62
2018-09-03T13:51:34.812Z,19.11
2018-09-03T13:54:04.953Z,18.93
2018-09-03T13:56:34.207Z,18.75
2018-09-03T13:59:03.391Z,18.80
2018-09-03T14:01:32.587Z,19.23
2018-09-03T14:04:01.815Z,19.74
2018-09-03T14:06:31.040Z,19.81
2018-09-03T14:09:00.280Z,19.52
2018-09-03T14:11:29.579Z,19.15
2018-09-03T14:13:58.777Z,19.35
2018-09-03T14:16:27.987Z,19.11
2018-09-03T14:18:57.203Z,18.84
2018-09-03T14:21:26.423Z,19.06
2018-09-03T14:23:55.630Z,19.45
2018-09-03T14:26:24.857Z,19.53
2018-09-03T14:28:54.073Z,19.53
2018-09-03T14:31:23.470Z,19.61
2018-09-03T14:33:53.092Z,19.23
2018-09-03T14:36:22.344Z,19.23
2018-09-03T14:38:51.586Z,19.06
2018-09-03T14:41:20.807Z,19.32
2018-09-03T14:43:50.071Z,19.85
2018-09-03T14:46:19.439Z,19.97
2018-09-03T14:48:48.679Z,20.01
2018-09-03T14:51:17.909Z,19.90
2018-09-03T14:53:47.144Z,19.45
2018-09-03T14:56:16.415Z,19.76
2018-09-03T14:58:45.634Z,20.06
2018-09-03T15:01:14.852Z,20.50
2018-09-03T15:03:44.151Z,20.61
2018-09-03T15:06:13.319Z,20.31
2018-09-03T15:08:42.539Z,20.54
2018-09-03T15:11:11.782Z,20.38
2018-09-03T15:13:41.007Z,20.31
2018-09-03T15:16:10.339Z,19.86
2018-09-03T15:23:37.262Z,19.25
2018-09-03T15:26:06.505Z,19.31
2018-09-03T15:28:35.939Z,19.29
2018-09-03T15:31:05.172Z,19.65
2018-09-03T15:33:34.398Z,20.04
2018-09-03T15:36:03.682Z,19.53
2018-09-03T15:38:32.941Z,19.79
2018-09-03T15:41:02.163Z,19.83
2018-09-03T15:43:31.409Z,19.71
2018-09-03T15:46:00.603Z,19.50
2018-09-03T15:48:29.857Z,19.57
2018-09-03T15:50:59.059Z,19.43
2018-09-03T15:53:28.505Z,19.40
2018-09-03T15:55:59.135Z,19.34
2018-09-03T15:58:28.380Z,19.42
2018-09-03T16:00:57.698Z,19.32
2018-09-03T16:03:27.012Z,19.75
2018-09-03T16:05:56.351Z,19.14
2018-09-03T16:08:25.572Z,18.84
2018-09-03T16:10:55.010Z,18.75
2018-09-03T16:13:24.322Z,18.78
2018-09-03T16:15:53.542Z,18.95
2018-09-03T16:18:22.786Z,18.39
2018-09-03T16:20:52.024Z,18.21
2018-09-03T16:23:21.218Z,18.11
2018-09-03T16:25:50.426Z,17.89
2018-09-03T16:28:20.505Z,17.90
2018-09-03T16:30:49.710Z,17.95
2018-09-03T16:33:19.170Z,18.16
2018-09-03T16:35:48.382Z,17.83
2018-09-03T16:38:17.588Z,18.00
2018-09-03T16:40:46.815Z,17.87
2018-09-03T16:43:16.043Z,17.80
2018-09-03T16:45:45.275Z,18.03
2018-09-03T16:48:14.478Z,18.00
2018-09-03T16:50:43.739Z,18.31
2018-09-03T16:53:12.960Z,17.89
2018-09-03T16:55:42.271Z,17.77
2018-09-03T16:58:11.505Z,17.78
2018-09-03T17:00:40.726Z,17.70
2018-09-03T17:03:09.930Z,17.76
2018-09-03T17:05:39.154Z,17.70
2018-09-03T17:08:08.665Z,17.72
2018-09-03T17:10:37.791Z,17.57
2018-09-03T17:13:07.216Z,17.30
2018-09-03T17:15:36.451Z,17.26
2018-09-03T17:18:05.674Z,17.16
2018-09-03T17:20:34.970Z,17.04
2018-09-03T17:23:04.145Z,17.14
2018-09-03T17:25:33.360Z,16.98
2018-09-03T17:28:02.592Z,17.29
2018-09-03T17:30:31.830Z,17.41
2018-09-03T17:33:01.042Z,17.06
2018-09-03T17:35:30.260Z,16.86
2018-09-03T17:37:59.478Z,16.71
2018-09-03T17:40:29.931Z,16.88
2018-09-03T17:42:59.159Z,16.63
2018-09-03T17:45:28.706Z,16.25
2018-09-03T17:47:57.913Z,16.59
2018-09-03T17:50:27.272Z,16.56
2018-09-03T17:52:56.486Z,16.32
2018-09-03T17:55:25.768Z,16.31
2018-09-03T17:57:55.082Z,16.02
2018-09-03T18:00:24.311Z,16.32
2018-09-03T18:02:53.540Z,16.07
2018-09-03T18:05:22.791Z,15.69
2018-09-03T18:07:52.030Z,15.69
2018-09-03T18:10:21.262Z,15.62
2018-09-03T18:12:50.471Z,15.70
2018-09-03T18:15:19.855Z,15.65
2018-09-03T18:17:49.129Z,15.33
2018-09-03T18:20:18.377Z,15.18
2018-09-03T18:22:47.879Z,15.47
2018-09-03T18:25:17.098Z,15.51
2018-09-03T18:27:47.555Z,15.19
2018-09-03T18:30:17.125Z,15.07
2018-09-03T18:32:46.255Z,15.06
2018-09-03T18:35:15.495Z,15.05
2018-09-03T18:37:44.787Z,15.07
2018-09-03T18:40:14.026Z,15.16
2018-09-03T18:42:43.427Z,15.13
2018-09-03T18:45:12.667Z,15.25
2018-09-03T18:47:41.884Z,15.27
2018-09-03T18:50:12.771Z,15.39
2018-09-03T18:52:42.016Z,15.66
2018-09-03T18:55:11.378Z,15.50
2018-09-03T18:57:40.590Z,15.58
2018-09-03T19:00:09.946Z,15.30
2018-09-03T19:02:39.132Z,15.27
2018-09-03T19:05:08.359Z,15.19
2018-09-03T19:07:37.816Z,15.15
2018-09-03T19:10:07.132Z,15.58
2018-09-03T19:12:36.338Z,15.63
2018-09-03T19:15:06.369Z,15.61
2018-09-03T19:17:35.751Z,15.53
2018-09-03T19:20:04.977Z,15.52
2018-09-03T19:22:34.183Z,15.25
2018-09-03T19:25:03.519Z,15.40
2018-09-03T19:27:32.747Z,15.42
2018-09-03T19:30:02.036Z,15.04
2018-09-03T19:32:31.243Z,15.22
2018-09-03T19:35:00.507Z,15.01
2018-09-03T19:37:29.734Z,15.07
2018-09-03T19:39:58.960Z,14.90
2018-09-03T19:42:28.191Z,14.93
2018-09-03T19:44:57.451Z,15.15
2018-09-03T19:47:26.726Z,15.53
2018-09-03T19:49:55.967Z,15.35
2018-09-03T19:52:25.232Z,15.60
2018-09-03T19:54:54.575Z,15.58
2018-09-03T19:57:23.842Z,15.53
2018-09-03T19:59:53.078Z,15.40
2018-09-03T20:02:22.367Z,15.14
2018-09-03T20:04:51.850Z,14.94
2018-09-03T20:07:21.119Z,14.88
2018-09-03T20:09:50.331Z,14.82
2018-09-03T20:12:19.564Z,14.80
2018-09-03T20:14:48.787Z,14.85
2018-09-03T20:17:18.039Z,14.80
2018-09-03T20:19:47.230Z,15.04
2018-09-03T20:22:18.103Z,15.15
2018-09-03T20:24:47.323Z,15.13
2018-09-03T20:27:16.545Z,15.08
2018-09-03T20:29:45.918Z,15.02
2018-09-03T20:32:15.137Z,14.97
2018-09-03T20:34:44.362Z,14.90
2018-09-03T20:37:13.602Z,14.85
2018-09-03T20:39:42.831Z,14.79
2018-09-03T20:42:12.054Z,15.07
2018-09-03T20:44:41.579Z,14.85
2018-09-03T20:47:10.823Z,15.05
2018-09-03T20:49:40.075Z,15.10
2018-09-03T20:52:09.306Z,15.11
2018-09-03T20:54:38.531Z,15.03
2018-09-03T20:57:07.764Z,14.76
2018-09-03T20:59:36.995Z,14.97
2018-09-03T21:02:06.343Z,14.78
2018-09-03T21:04:35.570Z,14.60
2018-09-03T21:07:04.814Z,14.66
2018-09-03T21:09:34.048Z,14.65
2018-09-03T21:12:03.268Z,14.61
2018-09-03T21:14:32.591Z,14.58
2018-09-03T21:17:01.745Z,14.45
2018-09-03T21:19:30.986Z,14.36
2018-09-03T21:22:00.287Z,14.45
2018-09-03T21:24:29.440Z,14.59
2018-09-03T21:26:58.659Z,14.74
2018-09-03T21:29:27.892Z,14.71
2018-09-03T21:31:57.117Z,14.51
2018-09-03T21:34:26.348Z,14.41
2018-09-03T21:36:55.566Z,14.50
2018-09-03T21:39:24.953Z,14.58
2018-09-03T21:41:54.183Z,14.46
2018-09-03T21:44:23.423Z,14.44
2018-09-03T21:46:52.668Z,14.33
2018-09-03T21:49:21.928Z,14.41
2018-09-03T21:56:49.321Z,14.67
2018-09-03T21:59:18.879Z,14.68
2018-09-03T22:01:48.125Z,14.68
2018-09-03T22:04:17.354Z,14.66
2018-09-03T22:06:46.651Z,14.51
2018-09-03T22:09:15.885Z,14.30
2018-09-03T22:11:45.447Z,14.43
2018-09-03T22:14:14.714Z,14.50
2018-09-03T22:16:44.008Z,14.41
2018-09-03T22:19:13.230Z,14.61
2018-09-03T22:21:42.458Z,14.55
2018-09-03T22:24:11.727Z,14.58
2018-09-03T22:26:41.195Z,14.57
2018-09-03T22:29:10.514Z,14.40
2018-09-03T22:31:39.792Z,14.36
2018-09-03T22:34:09.031Z,14.42
2018-09-03T22:36:38.354Z,14.41
2018-09-03T22:39:08.065Z,14.29
2018-09-03T22:41:37.270Z,14.54
2018-09-03T22:44:06.801Z,14.61
2018-09-03T22:46:36.041Z,14.70
2018-09-03T22:49:05.336Z,14.44
2018-09-03T22:51:34.574Z,14.31
2018-09-03T22:54:03.805Z,14.21
2018-09-03T22:56:33.025Z,14.06
2018-09-03T22:59:02.262Z,13.99
2018-09-03T23:01:31.483Z,13.99
2018-09-03T23:04:00.709Z,14.01
2018-09-03T23:06:29.944Z,13.98
2018-09-03T23:08:59.167Z,13.98
2018-09-03T23:11:28.442Z,14.00
2018-09-03T23:13:57.663Z,14.01
2018-09-03T23:16:26.898Z,14.24
2018-09-03T23:18:56.115Z,14.45
2018-09-03T23:21:25.349Z,14.57
2018-09-03T23:23:54.620Z,14.67
2018-09-03T23:26:23.782Z,14.56
2018-09-03T23:28:52.986Z,14.53
2018-09-03T23:31:22.310Z,14.49
2018-09-03T23:33:51.605Z,14.46
2018-09-03T23:36:20.828Z,14.47
2018-09-03T23:38:50.040Z,14.36
2018-09-03T23:41:19.257Z,14.30
2018-09-03T23:46:22.844Z,14.31
2018-09-03T23:48:52.050Z,14.29
2018-09-03T23:51:21.283Z,14.34
2018-09-03T23:53:50.496Z,14.26
2018-09-03T23:56:19.701Z,14.24
2018-09-03T23:58:48.940Z,14.21
